sensor_id;sensor_type;location;lat;lon;timestamp;P1;durP1;ratioP1;P2;durP2;ratioP2
7017;SDS011;3549;42.162;24.726;2023-06-26T00:01:49;13.57;;;7.70;;
7017;SDS011;3549;42.162;24.726;2023-06-26T00:04:14;12.37;;;7.53;;
7017;SDS011;3549;42.162;24.726;2023-06-26T00:06:40;14.63;;;7.67;;
7017;SDS011;3549;42.162;24.726;2023-06-26T00:09:06;13.90;;;7.87;;
7017;SDS011;3549;42.162;24.726;2023-06-26T00:11:32;12.00;;;7.67;;
7017;SDS011;3549;42.162;24.726;2023-06-26T00:13:58;13.30;;;7.93;;
7017;SDS011;3549;42.162;24.726;2023-06-26T00:16:25;13.10;;;7.90;;
7017;SDS011;3549;42.162;24.726;2023-06-26T00:18:51;14.40;;;8.13;;
7017;SDS011;3549;42.162;24.726;2023-06-26T00:21:16;11.60;;;7.30;;
7017;SDS011;3549;42.162;24.726;2023-06-26T00:23:42;13.27;;;7.47;;
7017;SDS011;3549;42.162;24.726;2023-06-26T00:26:07;13.40;;;7.77;;
7017;SDS011;3549;42.162;24.726;2023-06-26T00:28:34;13.53;;;7.93;;
7017;SDS011;3549;42.162;24.726;2023-06-26T00:31:00;15.27;;;7.70;;
7017;SDS011;3549;42.162;24.726;2023-06-26T00:33:25;12.93;;;7.97;;
7017;SDS011;3549;42.162;24.726;2023-06-26T00:35:50;12.77;;;7.70;;
7017;SDS011;3549;42.162;24.726;2023-06-26T00:38:16;14.70;;;8.10;;
7017;SDS011;3549;42.162;24.726;2023-06-26T00:40:42;13.50;;;7.63;;
7017;SDS011;3549;42.162;24.726;2023-06-26T00:43:08;13.87;;;8.23;;
7017;SDS011;3549;42.162;24.726;2023-06-26T00:45:34;12.27;;;7.67;;
7017;SDS011;3549;42.162;24.726;2023-06-26T00:47:59;15.47;;;7.93;;
7017;SDS011;3549;42.162;24.726;2023-06-26T00:50:24;13.00;;;8.23;;
7017;SDS011;3549;42.162;24.726;2023-06-26T00:52:51;15.97;;;8.20;;
7017;SDS011;3549;42.162;24.726;2023-06-26T00:55:17;12.57;;;8.07;;
7017;SDS011;3549;42.162;24.726;2023-06-26T00:57:42;15.03;;;8.40;;
7017;SDS011;3549;42.162;24.726;2023-06-26T01:00:11;15.60;;;8.57;;
7017;SDS011;3549;42.162;24.726;2023-06-26T01:02:37;13.63;;;8.50;;
7017;SDS011;3549;42.162;24.726;2023-06-26T01:05:04;13.00;;;8.50;;
7017;SDS011;3549;42.162;24.726;2023-06-26T01:07:32;15.07;;;8.70;;
7017;SDS011;3549;42.162;24.726;2023-06-26T01:10:02;14.67;;;9.20;;
7017;SDS011;3549;42.162;24.726;2023-06-26T01:12:30;16.00;;;9.17;;
7017;SDS011;3549;42.162;24.726;2023-06-26T01:14:57;13.67;;;8.47;;
7017;SDS011;3549;42.162;24.726;2023-06-26T01:17:23;17.73;;;8.70;;
7017;SDS011;3549;42.162;24.726;2023-06-26T01:19:49;17.20;;;9.00;;
7017;SDS011;3549;42.162;24.726;2023-06-26T01:28:06;14.47;;;8.77;;
7017;SDS011;3549;42.162;24.726;2023-06-26T01:30:32;12.60;;;8.63;;
7017;SDS011;3549;42.162;24.726;2023-06-26T01:33:01;15.03;;;9.47;;
7017;SDS011;3549;42.162;24.726;2023-06-26T01:35:28;16.80;;;9.33;;
7017;SDS011;3549;42.162;24.726;2023-06-26T01:37:54;17.03;;;9.63;;
7017;SDS011;3549;42.162;24.726;2023-06-26T01:40:36;15.03;;;9.40;;
7017;SDS011;3549;42.162;24.726;2023-06-26T01:43:02;13.90;;;8.83;;
7017;SDS011;3549;42.162;24.726;2023-06-26T01:45:28;16.33;;;9.30;;
7017;SDS011;3549;42.162;24.726;2023-06-26T01:47:56;15.77;;;9.00;;
7017;SDS011;3549;42.162;24.726;2023-06-26T01:50:26;17.57;;;9.87;;
7017;SDS011;3549;42.162;24.726;2023-06-26T01:52:58;18.03;;;10.07;;
7017;SDS011;3549;42.162;24.726;2023-06-26T01:58:43;16.40;;;9.67;;
7017;SDS011;3549;42.162;24.726;2023-06-26T02:01:11;17.50;;;10.13;;
7017;SDS011;3549;42.162;24.726;2023-06-26T02:03:37;16.77;;;10.37;;
7017;SDS011;3549;42.162;24.726;2023-06-26T02:06:02;15.93;;;10.33;;
7017;SDS011;3549;42.162;24.726;2023-06-26T02:08:28;15.87;;;10.47;;
7017;SDS011;3549;42.162;24.726;2023-06-26T02:10:53;16.93;;;10.70;;
7017;SDS011;3549;42.162;24.726;2023-06-26T02:13:18;20.47;;;10.90;;
7017;SDS011;3549;42.162;24.726;2023-06-26T02:15:44;17.33;;;10.77;;
7017;SDS011;3549;42.162;24.726;2023-06-26T02:18:09;17.90;;;11.10;;
7017;SDS011;3549;42.162;24.726;2023-06-26T02:20:35;20.33;;;11.73;;
7017;SDS011;3549;42.162;24.726;2023-06-26T02:23:00;18.53;;;11.40;;
7017;SDS011;3549;42.162;24.726;2023-06-26T02:25:26;21.13;;;11.27;;
7017;SDS011;3549;42.162;24.726;2023-06-26T02:27:51;19.60;;;11.37;;
7017;SDS011;3549;42.162;24.726;2023-06-26T02:30:17;19.10;;;10.80;;
7017;SDS011;3549;42.162;24.726;2023-06-26T02:32:42;16.97;;;10.87;;
7017;SDS011;3549;42.162;24.726;2023-06-26T02:35:08;19.43;;;10.83;;
7017;SDS011;3549;42.162;24.726;2023-06-26T02:37:34;20.03;;;11.47;;
7017;SDS011;3549;42.162;24.726;2023-06-26T02:39:59;19.13;;;11.43;;
7017;SDS011;3549;42.162;24.726;2023-06-26T02:42:24;18.47;;;11.80;;
7017;SDS011;3549;42.162;24.726;2023-06-26T02:44:50;17.33;;;11.50;;
7017;SDS011;3549;42.162;24.726;2023-06-26T02:47:15;20.03;;;11.97;;
7017;SDS011;3549;42.162;24.726;2023-06-26T02:49:40;20.07;;;12.03;;
7017;SDS011;3549;42.162;24.726;2023-06-26T02:52:06;21.83;;;11.87;;
7017;SDS011;3549;42.162;24.726;2023-06-26T02:54:31;21.43;;;11.77;;
7017;SDS011;3549;42.162;24.726;2023-06-26T02:56:57;19.87;;;12.27;;
7017;SDS011;3549;42.162;24.726;2023-06-26T02:59:24;19.70;;;12.17;;
7017;SDS011;3549;42.162;24.726;2023-06-26T03:01:49;19.50;;;11.83;;
7017;SDS011;3549;42.162;24.726;2023-06-26T03:04:15;20.10;;;12.70;;
7017;SDS011;3549;42.162;24.726;2023-06-26T03:06:42;20.57;;;12.33;;
7017;SDS011;3549;42.162;24.726;2023-06-26T03:09:08;18.80;;;12.27;;
7017;SDS011;3549;42.162;24.726;2023-06-26T03:11:34;21.00;;;13.07;;
7017;SDS011;3549;42.162;24.726;2023-06-26T03:13:59;20.40;;;13.20;;
7017;SDS011;3549;42.162;24.726;2023-06-26T03:16:24;23.33;;;13.20;;
7017;SDS011;3549;42.162;24.726;2023-06-26T03:18:50;22.90;;;12.83;;
7017;SDS011;3549;42.162;24.726;2023-06-26T03:21:16;23.00;;;12.87;;
7017;SDS011;3549;42.162;24.726;2023-06-26T03:23:42;20.90;;;12.50;;
7017;SDS011;3549;42.162;24.726;2023-06-26T03:26:07;20.17;;;12.27;;
7017;SDS011;3549;42.162;24.726;2023-06-26T03:28:33;20.40;;;12.47;;
7017;SDS011;3549;42.162;24.726;2023-06-26T03:30:58;23.17;;;13.17;;
7017;SDS011;3549;42.162;24.726;2023-06-26T03:33:24;22.23;;;13.17;;
7017;SDS011;3549;42.162;24.726;2023-06-26T03:35:50;20.00;;;13.30;;
7017;SDS011;3549;42.162;24.726;2023-06-26T03:38:15;21.47;;;12.90;;
7017;SDS011;3549;42.162;24.726;2023-06-26T03:40:40;23.77;;;13.37;;
7017;SDS011;3549;42.162;24.726;2023-06-26T03:43:06;20.17;;;13.40;;
7017;SDS011;3549;42.162;24.726;2023-06-26T03:45:31;29.40;;;14.27;;
7017;SDS011;3549;42.162;24.726;2023-06-26T03:47:57;24.63;;;13.67;;
7017;SDS011;3549;42.162;24.726;2023-06-26T03:50:22;22.20;;;13.73;;
7017;SDS011;3549;42.162;24.726;2023-06-26T03:52:48;22.83;;;13.80;;
7017;SDS011;3549;42.162;24.726;2023-06-26T03:55:14;21.87;;;13.20;;
7017;SDS011;3549;42.162;24.726;2023-06-26T03:57:40;24.07;;;13.07;;
7017;SDS011;3549;42.162;24.726;2023-06-26T04:00:05;20.20;;;13.40;;
7017;SDS011;3549;42.162;24.726;2023-06-26T04:02:34;22.57;;;13.07;;
7017;SDS011;3549;42.162;24.726;2023-06-26T04:05:00;19.63;;;11.87;;
7017;SDS011;3549;42.162;24.726;2023-06-26T04:07:26;22.30;;;12.30;;
7017;SDS011;3549;42.162;24.726;2023-06-26T04:09:51;20.00;;;13.00;;
7017;SDS011;3549;42.162;24.726;2023-06-26T04:12:17;20.60;;;12.57;;
7017;SDS011;3549;42.162;24.726;2023-06-26T04:14:42;21.27;;;12.97;;
7017;SDS011;3549;42.162;24.726;2023-06-26T04:17:08;21.40;;;12.80;;
7017;SDS011;3549;42.162;24.726;2023-06-26T04:19:33;19.70;;;13.20;;
7017;SDS011;3549;42.162;24.726;2023-06-26T04:22:00;19.60;;;13.00;;
7017;SDS011;3549;42.162;24.726;2023-06-26T04:24:26;20.73;;;12.60;;
7017;SDS011;3549;42.162;24.726;2023-06-26T04:26:51;21.33;;;13.20;;
7017;SDS011;3549;42.162;24.726;2023-06-26T04:29:17;25.40;;;13.70;;
7017;SDS011;3549;42.162;24.726;2023-06-26T04:31:42;23.30;;;13.67;;
7017;SDS011;3549;42.162;24.726;2023-06-26T04:34:11;23.37;;;13.67;;
7017;SDS011;3549;42.162;24.726;2023-06-26T04:36:37;23.80;;;13.57;;
7017;SDS011;3549;42.162;24.726;2023-06-26T04:39:04;26.10;;;14.20;;
7017;SDS011;3549;42.162;24.726;2023-06-26T04:41:29;22.07;;;12.80;;
7017;SDS011;3549;42.162;24.726;2023-06-26T04:43:55;23.70;;;13.97;;
7017;SDS011;3549;42.162;24.726;2023-06-26T04:46:20;21.83;;;13.67;;
7017;SDS011;3549;42.162;24.726;2023-06-26T04:48:45;20.87;;;13.57;;
7017;SDS011;3549;42.162;24.726;2023-06-26T04:51:11;22.13;;;13.57;;
7017;SDS011;3549;42.162;24.726;2023-06-26T04:53:37;28.07;;;14.17;;
7017;SDS011;3549;42.162;24.726;2023-06-26T04:56:02;21.00;;;13.63;;
7017;SDS011;3549;42.162;24.726;2023-06-26T04:58:28;27.80;;;14.77;;
7017;SDS011;3549;42.162;24.726;2023-06-26T05:00:53;21.07;;;13.77;;
7017;SDS011;3549;42.162;24.726;2023-06-26T05:03:19;19.80;;;12.43;;
7017;SDS011;3549;42.162;24.726;2023-06-26T05:05:45;21.80;;;13.73;;
7017;SDS011;3549;42.162;24.726;2023-06-26T05:08:17;19.37;;;12.63;;
7017;SDS011;3549;42.162;24.726;2023-06-26T05:10:52;21.17;;;12.57;;
7017;SDS011;3549;42.162;24.726;2023-06-26T05:13:24;20.90;;;12.00;;
7017;SDS011;3549;42.162;24.726;2023-06-26T05:15:51;19.77;;;14.40;;
7017;SDS011;3549;42.162;24.726;2023-06-26T05:18:17;23.40;;;14.07;;
7017;SDS011;3549;42.162;24.726;2023-06-26T05:20:43;20.27;;;13.67;;
7017;SDS011;3549;42.162;24.726;2023-06-26T05:23:08;18.77;;;12.73;;
7017;SDS011;3549;42.162;24.726;2023-06-26T05:25:36;18.27;;;13.30;;
7017;SDS011;3549;42.162;24.726;2023-06-26T05:28:02;19.37;;;12.77;;
7017;SDS011;3549;42.162;24.726;2023-06-26T05:30:30;19.40;;;11.87;;
7017;SDS011;3549;42.162;24.726;2023-06-26T05:32:56;16.10;;;12.33;;
7017;SDS011;3549;42.162;24.726;2023-06-26T05:35:24;19.97;;;12.43;;
7017;SDS011;3549;42.162;24.726;2023-06-26T05:37:55;17.77;;;12.00;;
7017;SDS011;3549;42.162;24.726;2023-06-26T05:40:22;16.50;;;13.03;;
7017;SDS011;3549;42.162;24.726;2023-06-26T05:42:47;17.63;;;12.37;;
7017;SDS011;3549;42.162;24.726;2023-06-26T05:45:13;16.80;;;11.37;;
7017;SDS011;3549;42.162;24.726;2023-06-26T05:47:39;15.83;;;11.77;;
7017;SDS011;3549;42.162;24.726;2023-06-26T05:50:05;15.93;;;11.40;;
7017;SDS011;3549;42.162;24.726;2023-06-26T05:52:31;20.60;;;11.93;;
7017;SDS011;3549;42.162;24.726;2023-06-26T05:54:57;17.65;;;12.35;;
7017;SDS011;3549;42.162;24.726;2023-06-26T05:57:25;14.25;;;11.70;;
7017;SDS011;3549;42.162;24.726;2023-06-26T05:59:54;16.80;;;11.10;;
7017;SDS011;3549;42.162;24.726;2023-06-26T06:02:20;16.75;;;10.82;;
7017;SDS011;3549;42.162;24.726;2023-06-26T06:04:46;18.10;;;11.95;;
7017;SDS011;3549;42.162;24.726;2023-06-26T06:07:11;16.55;;;11.10;;
7017;SDS011;3549;42.162;24.726;2023-06-26T06:09:37;14.82;;;11.15;;
7017;SDS011;3549;42.162;24.726;2023-06-26T06:12:03;16.33;;;11.30;;
7017;SDS011;3549;42.162;24.726;2023-06-26T06:14:30;16.88;;;10.82;;
7017;SDS011;3549;42.162;24.726;2023-06-26T06:16:56;18.65;;;11.38;;
7017;SDS011;3549;42.162;24.726;2023-06-26T06:19:22;13.60;;;10.93;;
7017;SDS011;3549;42.162;24.726;2023-06-26T06:21:47;13.45;;;10.25;;
7017;SDS011;3549;42.162;24.726;2023-06-26T06:24:13;16.77;;;11.20;;
7017;SDS011;3549;42.162;24.726;2023-06-26T06:26:39;16.33;;;11.30;;
7017;SDS011;3549;42.162;24.726;2023-06-26T06:29:04;14.20;;;11.07;;
7017;SDS011;3549;42.162;24.726;2023-06-26T06:31:29;14.00;;;10.98;;
7017;SDS011;3549;42.162;24.726;2023-06-26T06:33:55;19.38;;;12.90;;
7017;SDS011;3549;42.162;24.726;2023-06-26T06:36:20;14.53;;;10.27;;
7017;SDS011;3549;42.162;24.726;2023-06-26T06:38:46;15.23;;;10.23;;
7017;SDS011;3549;42.162;24.726;2023-06-26T06:41:11;12.87;;;10.10;;
7017;SDS011;3549;42.162;24.726;2023-06-26T06:43:37;14.73;;;10.53;;
7017;SDS011;3549;42.162;24.726;2023-06-26T06:46:03;19.10;;;14.30;;
7017;SDS011;3549;42.162;24.726;2023-06-26T06:48:29;18.20;;;11.13;;
7017;SDS011;3549;42.162;24.726;2023-06-26T06:50:54;22.60;;;15.48;;
7017;SDS011;3549;42.162;24.726;2023-06-26T06:53:20;12.13;;;9.38;;
7017;SDS011;3549;42.162;24.726;2023-06-26T06:55:46;13.98;;;9.63;;
7017;SDS011;3549;42.162;24.726;2023-06-26T06:58:11;12.20;;;8.90;;
7017;SDS011;3549;42.162;24.726;2023-06-26T07:00:37;12.15;;;8.65;;
7017;SDS011;3549;42.162;24.726;2023-06-26T07:03:02;14.05;;;9.13;;
7017;SDS011;3549;42.162;24.726;2023-06-26T07:05:28;11.77;;;8.65;;
7017;SDS011;3549;42.162;24.726;2023-06-26T07:07:53;17.85;;;12.55;;
7017;SDS011;3549;42.162;24.726;2023-06-26T07:10:19;11.38;;;9.30;;
7017;SDS011;3549;42.162;24.726;2023-06-26T07:12:44;13.43;;;9.48;;
7017;SDS011;3549;42.162;24.726;2023-06-26T07:15:10;14.25;;;9.32;;
7017;SDS011;3549;42.162;24.726;2023-06-26T07:17:35;17.98;;;9.88;;
7017;SDS011;3549;42.162;24.726;2023-06-26T07:20:03;12.02;;;8.98;;
7017;SDS011;3549;42.162;24.726;2023-06-26T07:22:31;11.88;;;8.70;;
7017;SDS011;3549;42.162;24.726;2023-06-26T07:24:57;12.50;;;8.70;;
7017;SDS011;3549;42.162;24.726;2023-06-26T07:27:22;12.75;;;8.82;;
7017;SDS011;3549;42.162;24.726;2023-06-26T07:29:47;11.02;;;8.80;;
7017;SDS011;3549;42.162;24.726;2023-06-26T07:32:13;11.68;;;9.13;;
7017;SDS011;3549;42.162;24.726;2023-06-26T07:34:38;20.25;;;14.70;;
7017;SDS011;3549;42.162;24.726;2023-06-26T07:37:04;14.60;;;8.75;;
7017;SDS011;3549;42.162;24.726;2023-06-26T07:39:29;16.23;;;8.88;;
7017;SDS011;3549;42.162;24.726;2023-06-26T07:41:55;11.18;;;8.35;;
7017;SDS011;3549;42.162;24.726;2023-06-26T07:44:21;12.88;;;9.82;;
7017;SDS011;3549;42.162;24.726;2023-06-26T07:46:46;14.15;;;10.05;;
7017;SDS011;3549;42.162;24.726;2023-06-26T07:49:12;13.20;;;9.32;;
7017;SDS011;3549;42.162;24.726;2023-06-26T07:51:37;12.13;;;8.82;;
7017;SDS011;3549;42.162;24.726;2023-06-26T07:54:03;15.82;;;8.75;;
7017;SDS011;3549;42.162;24.726;2023-06-26T07:56:28;15.45;;;9.20;;
7017;SDS011;3549;42.162;24.726;2023-06-26T07:58:54;11.45;;;8.18;;
7017;SDS011;3549;42.162;24.726;2023-06-26T08:01:19;11.70;;;8.23;;
7017;SDS011;3549;42.162;24.726;2023-06-26T08:03:45;12.88;;;8.70;;
7017;SDS011;3549;42.162;24.726;2023-06-26T08:06:10;11.07;;;8.13;;
7017;SDS011;3549;42.162;24.726;2023-06-26T08:08:36;11.25;;;8.32;;
7017;SDS011;3549;42.162;24.726;2023-06-26T08:11:01;18.23;;;13.70;;
7017;SDS011;3549;42.162;24.726;2023-06-26T08:13:27;14.43;;;9.88;;
7017;SDS011;3549;42.162;24.726;2023-06-26T08:15:52;12.02;;;9.68;;
7017;SDS011;3549;42.162;24.726;2023-06-26T08:18:18;12.70;;;9.82;;
7017;SDS011;3549;42.162;24.726;2023-06-26T08:20:43;13.38;;;9.45;;
7017;SDS011;3549;42.162;24.726;2023-06-26T08:23:09;14.15;;;9.57;;
7017;SDS011;3549;42.162;24.726;2023-06-26T08:25:34;16.55;;;9.63;;
7017;SDS011;3549;42.162;24.726;2023-06-26T08:28:00;11.98;;;8.93;;
7017;SDS011;3549;42.162;24.726;2023-06-26T08:30:25;13.30;;;9.23;;
7017;SDS011;3549;42.162;24.726;2023-06-26T08:32:53;13.98;;;9.23;;
7017;SDS011;3549;42.162;24.726;2023-06-26T08:35:21;12.73;;;9.02;;
7017;SDS011;3549;42.162;24.726;2023-06-26T08:37:47;13.63;;;8.85;;
7017;SDS011;3549;42.162;24.726;2023-06-26T08:40:12;11.93;;;8.40;;
7017;SDS011;3549;42.162;24.726;2023-06-26T08:42:42;15.05;;;8.93;;
7017;SDS011;3549;42.162;24.726;2023-06-26T08:45:07;13.73;;;9.10;;
7017;SDS011;3549;42.162;24.726;2023-06-26T08:47:33;11.40;;;8.90;;
7017;SDS011;3549;42.162;24.726;2023-06-26T08:50:10;11.88;;;9.00;;
7017;SDS011;3549;42.162;24.726;2023-06-26T08:52:46;12.27;;;8.10;;
7017;SDS011;3549;42.162;24.726;2023-06-26T08:55:20;11.80;;;7.40;;
7017;SDS011;3549;42.162;24.726;2023-06-26T08:57:49;12.73;;;8.57;;
7017;SDS011;3549;42.162;24.726;2023-06-26T09:00:15;14.07;;;9.48;;
7017;SDS011;3549;42.162;24.726;2023-06-26T09:02:42;14.63;;;10.40;;
7017;SDS011;3549;42.162;24.726;2023-06-26T09:05:09;14.68;;;10.38;;
7017;SDS011;3549;42.162;24.726;2023-06-26T09:07:34;13.48;;;9.25;;
7017;SDS011;3549;42.162;24.726;2023-06-26T09:10:00;12.65;;;8.80;;
7017;SDS011;3549;42.162;24.726;2023-06-26T09:12:26;12.40;;;8.23;;
7017;SDS011;3549;42.162;24.726;2023-06-26T09:14:52;11.00;;;7.80;;
7017;SDS011;3549;42.162;24.726;2023-06-26T09:17:23;11.50;;;7.25;;
7017;SDS011;3549;42.162;24.726;2023-06-26T09:19:49;9.25;;;7.05;;
7017;SDS011;3549;42.162;24.726;2023-06-26T09:22:15;13.30;;;11.27;;
7017;SDS011;3549;42.162;24.726;2023-06-26T09:24:42;11.23;;;8.80;;
7017;SDS011;3549;42.162;24.726;2023-06-26T09:27:08;15.32;;;8.10;;
7017;SDS011;3549;42.162;24.726;2023-06-26T09:29:34;15.75;;;9.48;;
7017;SDS011;3549;42.162;24.726;2023-06-26T09:32:00;15.02;;;10.32;;
7017;SDS011;3549;42.162;24.726;2023-06-26T09:34:32;14.95;;;9.88;;
7017;SDS011;3549;42.162;24.726;2023-06-26T09:36:58;15.32;;;9.98;;
7017;SDS011;3549;42.162;24.726;2023-06-26T09:39:29;13.82;;;9.70;;
7017;SDS011;3549;42.162;24.726;2023-06-26T09:41:55;13.18;;;9.35;;
7017;SDS011;3549;42.162;24.726;2023-06-26T09:44:22;12.05;;;8.73;;
7017;SDS011;3549;42.162;24.726;2023-06-26T09:46:48;14.18;;;8.80;;
7017;SDS011;3549;42.162;24.726;2023-06-26T09:49:13;18.67;;;12.23;;
7017;SDS011;3549;42.162;24.726;2023-06-26T09:51:39;14.90;;;8.05;;
7017;SDS011;3549;42.162;24.726;2023-06-26T09:54:07;10.85;;;7.60;;
7017;SDS011;3549;42.162;24.726;2023-06-26T09:56:33;10.57;;;7.88;;
7017;SDS011;3549;42.162;24.726;2023-06-26T09:59:03;15.85;;;8.38;;
7017;SDS011;3549;42.162;24.726;2023-06-26T10:01:30;19.42;;;9.30;;
7017;SDS011;3549;42.162;24.726;2023-06-26T10:03:56;16.38;;;10.90;;
7017;SDS011;3549;42.162;24.726;2023-06-26T10:06:32;16.10;;;10.27;;
7017;SDS011;3549;42.162;24.726;2023-06-26T10:09:00;15.30;;;9.50;;
7017;SDS011;3549;42.162;24.726;2023-06-26T10:11:33;13.38;;;8.98;;
7017;SDS011;3549;42.162;24.726;2023-06-26T10:14:04;17.25;;;9.32;;
7017;SDS011;3549;42.162;24.726;2023-06-26T10:16:30;13.30;;;8.77;;
7017;SDS011;3549;42.162;24.726;2023-06-26T10:18:58;14.00;;;9.25;;
7017;SDS011;3549;42.162;24.726;2023-06-26T10:21:27;11.70;;;8.43;;
7017;SDS011;3549;42.162;24.726;2023-06-26T10:23:56;12.27;;;8.70;;
7017;SDS011;3549;42.162;24.726;2023-06-26T10:26:22;15.30;;;8.85;;
7017;SDS011;3549;42.162;24.726;2023-06-26T10:28:50;11.02;;;8.93;;
7017;SDS011;3549;42.162;24.726;2023-06-26T10:31:21;11.52;;;8.95;;
7017;SDS011;3549;42.162;24.726;2023-06-26T10:33:51;12.10;;;8.65;;
7017;SDS011;3549;42.162;24.726;2023-06-26T10:36:26;11.95;;;9.55;;
7017;SDS011;3549;42.162;24.726;2023-06-26T10:39:03;12.85;;;10.20;;
7017;SDS011;3549;42.162;24.726;2023-06-26T10:41:35;13.55;;;11.00;;
7017;SDS011;3549;42.162;24.726;2023-06-26T10:44:08;10.75;;;8.20;;
7017;SDS011;3549;42.162;24.726;2023-06-26T10:46:50;9.13;;;7.22;;
7017;SDS011;3549;42.162;24.726;2023-06-26T10:49:18;12.32;;;7.53;;
7017;SDS011;3549;42.162;24.726;2023-06-26T10:51:48;10.20;;;6.75;;
7017;SDS011;3549;42.162;24.726;2023-06-26T10:54:15;10.10;;;7.00;;
7017;SDS011;3549;42.162;24.726;2023-06-26T10:59:14;8.85;;;6.95;;
7017;SDS011;3549;42.162;24.726;2023-06-26T11:01:45;10.75;;;7.15;;
7017;SDS011;3549;42.162;24.726;2023-06-26T11:04:13;17.83;;;11.00;;
7017;SDS011;3549;42.162;24.726;2023-06-26T11:06:41;11.55;;;8.13;;
7017;SDS011;3549;42.162;24.726;2023-06-26T11:14:20;14.50;;;8.60;;
7017;SDS011;3549;42.162;24.726;2023-06-26T11:16:46;13.02;;;8.40;;
7017;SDS011;3549;42.162;24.726;2023-06-26T11:19:13;12.25;;;7.60;;
7017;SDS011;3549;42.162;24.726;2023-06-26T11:21:39;13.27;;;7.65;;
7017;SDS011;3549;42.162;24.726;2023-06-26T11:24:08;9.07;;;6.45;;
7017;SDS011;3549;42.162;24.726;2023-06-26T11:26:41;12.57;;;7.30;;
7017;SDS011;3549;42.162;24.726;2023-06-26T11:29:08;15.77;;;7.65;;
7017;SDS011;3549;42.162;24.726;2023-06-26T11:31:35;12.02;;;7.10;;
7017;SDS011;3549;42.162;24.726;2023-06-26T11:34:05;9.95;;;6.70;;
7017;SDS011;3549;42.162;24.726;2023-06-26T11:36:33;12.02;;;6.95;;
7017;SDS011;3549;42.162;24.726;2023-06-26T11:39:02;18.08;;;7.57;;
7017;SDS011;3549;42.162;24.726;2023-06-26T11:41:31;14.95;;;8.15;;
7017;SDS011;3549;42.162;24.726;2023-06-26T11:44:04;11.73;;;7.10;;
7017;SDS011;3549;42.162;24.726;2023-06-26T11:46:31;13.23;;;8.15;;
7017;SDS011;3549;42.162;24.726;2023-06-26T11:48:59;13.18;;;8.88;;
7017;SDS011;3549;42.162;24.726;2023-06-26T11:51:26;13.43;;;9.05;;
7017;SDS011;3549;42.162;24.726;2023-06-26T11:53:53;12.63;;;7.40;;
7017;SDS011;3549;42.162;24.726;2023-06-26T11:56:19;12.18;;;7.15;;
7017;SDS011;3549;42.162;24.726;2023-06-26T11:59:00;12.50;;;7.97;;
7017;SDS011;3549;42.162;24.726;2023-06-26T12:01:33;9.38;;;7.53;;
7017;SDS011;3549;42.162;24.726;2023-06-26T12:04:09;8.43;;;6.75;;
7017;SDS011;3549;42.162;24.726;2023-06-26T12:06:37;8.90;;;7.28;;
7017;SDS011;3549;42.162;24.726;2023-06-26T12:09:05;11.77;;;7.70;;
7017;SDS011;3549;42.162;24.726;2023-06-26T12:11:40;13.13;;;8.20;;
7017;SDS011;3549;42.162;24.726;2023-06-26T12:14:07;12.15;;;8.68;;
7017;SDS011;3549;42.162;24.726;2023-06-26T12:16:34;10.02;;;8.10;;
7017;SDS011;3549;42.162;24.726;2023-06-26T12:19:01;12.63;;;9.13;;
7017;SDS011;3549;42.162;24.726;2023-06-26T12:24:02;6.75;;;5.70;;
7017;SDS011;3549;42.162;24.726;2023-06-26T12:26:28;7.80;;;6.15;;
7017;SDS011;3549;42.162;24.726;2023-06-26T12:29:01;7.55;;;5.78;;
7017;SDS011;3549;42.162;24.726;2023-06-26T12:31:30;8.68;;;5.20;;
7017;SDS011;3549;42.162;24.726;2023-06-26T12:33:56;5.80;;;4.82;;
7017;SDS011;3549;42.162;24.726;2023-06-26T12:36:22;5.60;;;4.75;;
7017;SDS011;3549;42.162;24.726;2023-06-26T12:38:48;9.23;;;5.10;;
7017;SDS011;3549;42.162;24.726;2023-06-26T12:41:13;7.40;;;4.88;;
7017;SDS011;3549;42.162;24.726;2023-06-26T12:43:40;7.30;;;4.97;;
7017;SDS011;3549;42.162;24.726;2023-06-26T12:46:06;7.03;;;5.00;;
7017;SDS011;3549;42.162;24.726;2023-06-26T12:51:10;5.90;;;5.35;;
7017;SDS011;3549;42.162;24.726;2023-06-26T12:53:36;8.63;;;5.88;;
7017;SDS011;3549;42.162;24.726;2023-06-26T12:56:04;8.32;;;6.07;;
7017;SDS011;3549;42.162;24.726;2023-06-26T12:58:31;12.55;;;6.00;;
7017;SDS011;3549;42.162;24.726;2023-06-26T13:00:56;9.25;;;6.38;;
7017;SDS011;3549;42.162;24.726;2023-06-26T13:03:22;11.20;;;6.07;;
7017;SDS011;3549;42.162;24.726;2023-06-26T13:05:48;7.60;;;6.40;;
7017;SDS011;3549;42.162;24.726;2023-06-26T13:08:13;9.30;;;6.38;;
7017;SDS011;3549;42.162;24.726;2023-06-26T13:10:43;9.48;;;6.70;;
7017;SDS011;3549;42.162;24.726;2023-06-26T13:13:09;10.77;;;6.40;;
7017;SDS011;3549;42.162;24.726;2023-06-26T13:15:35;8.65;;;6.38;;
7017;SDS011;3549;42.162;24.726;2023-06-26T13:18:01;9.40;;;6.20;;
7017;SDS011;3549;42.162;24.726;2023-06-26T13:20:26;6.88;;;5.60;;
7017;SDS011;3549;42.162;24.726;2023-06-26T13:22:53;6.50;;;5.22;;
7017;SDS011;3549;42.162;24.726;2023-06-26T13:25:19;6.80;;;5.35;;
7017;SDS011;3549;42.162;24.726;2023-06-26T13:27:44;7.88;;;5.70;;
7017;SDS011;3549;42.162;24.726;2023-06-26T13:30:10;7.03;;;6.03;;
7017;SDS011;3549;42.162;24.726;2023-06-26T13:32:36;7.15;;;5.60;;
7017;SDS011;3549;42.162;24.726;2023-06-26T13:35:02;8.88;;;6.03;;
7017;SDS011;3549;42.162;24.726;2023-06-26T13:37:28;8.20;;;6.20;;
7017;SDS011;3549;42.162;24.726;2023-06-26T13:39:54;6.97;;;5.90;;
7017;SDS011;3549;42.162;24.726;2023-06-26T13:42:19;8.55;;;5.00;;
7017;SDS011;3549;42.162;24.726;2023-06-26T13:44:44;6.90;;;4.78;;
7017;SDS011;3549;42.162;24.726;2023-06-26T13:47:12;7.53;;;4.80;;
7017;SDS011;3549;42.162;24.726;2023-06-26T13:49:39;6.30;;;4.50;;
7017;SDS011;3549;42.162;24.726;2023-06-26T13:52:05;8.02;;;4.47;;
7017;SDS011;3549;42.162;24.726;2023-06-26T13:54:33;5.13;;;4.25;;
7017;SDS011;3549;42.162;24.726;2023-06-26T13:57:00;5.07;;;4.28;;
7017;SDS011;3549;42.162;24.726;2023-06-26T13:59:27;4.85;;;4.07;;
7017;SDS011;3549;42.162;24.726;2023-06-26T14:01:53;5.45;;;4.38;;
7017;SDS011;3549;42.162;24.726;2023-06-26T14:04:18;6.35;;;4.70;;
7017;SDS011;3549;42.162;24.726;2023-06-26T14:06:44;7.97;;;4.72;;
7017;SDS011;3549;42.162;24.726;2023-06-26T14:09:10;7.18;;;5.07;;
7017;SDS011;3549;42.162;24.726;2023-06-26T14:11:38;9.10;;;5.20;;
7017;SDS011;3549;42.162;24.726;2023-06-26T14:14:04;8.68;;;5.32;;
7017;SDS011;3549;42.162;24.726;2023-06-26T14:16:30;6.75;;;4.90;;
7017;SDS011;3549;42.162;24.726;2023-06-26T14:18:56;10.50;;;5.10;;
7017;SDS011;3549;42.162;24.726;2023-06-26T14:21:22;7.65;;;4.72;;
7017;SDS011;3549;42.162;24.726;2023-06-26T14:23:48;7.25;;;4.90;;
7017;SDS011;3549;42.162;24.726;2023-06-26T14:26:15;7.03;;;4.82;;
7017;SDS011;3549;42.162;24.726;2023-06-26T14:28:40;7.18;;;4.55;;
7017;SDS011;3549;42.162;24.726;2023-06-26T14:31:06;6.85;;;4.88;;
7017;SDS011;3549;42.162;24.726;2023-06-26T14:33:31;8.40;;;4.82;;
7017;SDS011;3549;42.162;24.726;2023-06-26T14:35:57;6.38;;;4.50;;
7017;SDS011;3549;42.162;24.726;2023-06-26T14:38:22;7.18;;;4.72;;
7017;SDS011;3549;42.162;24.726;2023-06-26T14:40:50;5.35;;;4.38;;
7017;SDS011;3549;42.162;24.726;2023-06-26T14:43:16;8.07;;;4.80;;
7017;SDS011;3549;42.162;24.726;2023-06-26T14:45:43;9.43;;;4.60;;
7017;SDS011;3549;42.162;24.726;2023-06-26T14:48:09;7.45;;;4.57;;
7017;SDS011;3549;42.162;24.726;2023-06-26T14:50:34;8.48;;;5.00;;
7017;SDS011;3549;42.162;24.726;2023-06-26T14:53:00;8.82;;;5.60;;
7017;SDS011;3549;42.162;24.726;2023-06-26T14:55:25;7.20;;;5.18;;
7017;SDS011;3549;42.162;24.726;2023-06-26T14:57:51;7.50;;;4.68;;
7017;SDS011;3549;42.162;24.726;2023-06-26T15:00:17;6.10;;;4.55;;
7017;SDS011;3549;42.162;24.726;2023-06-26T15:02:42;6.20;;;4.57;;
7017;SDS011;3549;42.162;24.726;2023-06-26T15:05:08;8.18;;;4.38;;